createdAt,value
2019-03-30T00:00:38.611Z,79.40
2019-03-30T00:03:07.826Z,79.20
2019-03-30T00:05:37.010Z,79.20
2019-03-30T00:08:06.107Z,79.00
2019-03-30T00:10:35.307Z,79.30
2019-03-30T00:13:04.135Z,79.30
2019-03-30T00:15:33.295Z,79.50
2019-03-30T00:18:02.117Z,79.50
2019-03-30T00:20:30.901Z,79.40
2019-03-30T00:23:00.069Z,79.50
2019-03-30T00:25:29.270Z,79.60
2019-03-30T00:27:58.096Z,79.60
2019-03-30T00:30:26.884Z,79.80
2019-03-30T00:32:55.694Z,80.20
2019-03-30T00:35:24.512Z,80.00
2019-03-30T00:37:53.627Z,80.20
2019-03-30T00:40:22.829Z,80.10
2019-03-30T00:42:51.647Z,80.00
2019-03-30T00:45:20.817Z,79.90
2019-03-30T00:47:49.563Z,79.90
2019-03-30T00:50:18.690Z,79.90
2019-03-30T00:52:47.900Z,79.90
2019-03-30T00:55:16.615Z,79.70
2019-03-30T00:57:45.435Z,80.10
2019-03-30T01:00:16.111Z,80.20
2019-03-30T01:02:45.202Z,79.70
2019-03-30T01:05:14.119Z,80.00
2019-03-30T01:07:43.025Z,79.80
2019-03-30T01:10:13.111Z,79.50
2019-03-30T01:12:42.307Z,80.30
2019-03-30T01:15:11.077Z,80.40
2019-03-30T01:17:39.862Z,80.60
2019-03-30T01:20:09.390Z,80.40
2019-03-30T01:22:38.187Z,80.90
2019-03-30T01:25:08.759Z,80.00
2019-03-30T01:27:37.907Z,80.40
2019-03-30T01:30:22.157Z,80.40
2019-03-30T01:32:38.534Z,80.30
2019-03-30T01:35:07.730Z,80.30
2019-03-30T01:37:36.866Z,80.40
2019-03-30T01:40:08.724Z,80.30
2019-03-30T01:42:37.569Z,80.30
2019-03-30T01:45:08.510Z,80.20
2019-03-30T01:47:37.648Z,79.90
2019-03-30T01:50:17.621Z,79.60
2019-03-30T01:52:41.465Z,79.60
2019-03-30T01:55:10.970Z,80.10
2019-03-30T01:57:39.749Z,79.90
2019-03-30T02:00:10.705Z,79.80
2019-03-30T02:02:39.912Z,79.70
2019-03-30T02:05:10.013Z,79.70
2019-03-30T02:07:38.876Z,79.20
2019-03-30T02:10:09.160Z,80.00
2019-03-30T02:12:38.047Z,80.10
2019-03-30T02:15:07.747Z,79.50
2019-03-30T02:17:36.524Z,79.70
2019-03-30T02:20:11.367Z,79.60
2019-03-30T02:22:40.458Z,79.60
2019-03-30T02:25:09.760Z,79.70
2019-03-30T02:27:38.959Z,79.80
2019-03-30T02:30:08.152Z,80.70
2019-03-30T02:32:37.365Z,80.00
2019-03-30T02:35:07.606Z,80.00
2019-03-30T02:37:36.807Z,79.90
2019-03-30T02:40:07.416Z,80.10
2019-03-30T02:42:36.616Z,80.00
2019-03-30T02:45:06.400Z,79.60
2019-03-30T02:47:35.534Z,79.90
2019-03-30T02:50:06.351Z,79.70
2019-03-30T02:52:35.076Z,80.10
2019-03-30T02:55:04.865Z,79.40
2019-03-30T02:57:34.060Z,79.70
2019-03-30T03:00:03.451Z,79.60
2019-03-30T03:02:32.563Z,79.70
2019-03-30T03:05:01.656Z,79.20
2019-03-30T03:07:30.764Z,79.00
2019-03-30T03:09:59.851Z,79.00
2019-03-30T03:12:28.668Z,79.30
2019-03-30T03:14:57.454Z,79.00
2019-03-30T03:17:26.273Z,78.70
2019-03-30T03:19:55.063Z,78.60
2019-03-30T03:22:24.204Z,79.60
2019-03-30T03:24:53.307Z,78.90
2019-03-30T03:27:22.396Z,79.10
2019-03-30T03:29:51.208Z,79.20
2019-03-30T03:32:20.386Z,79.70
2019-03-30T03:34:49.518Z,79.80
2019-03-30T03:37:18.690Z,79.80
2019-03-30T03:39:47.779Z,80.20
2019-03-30T03:42:16.575Z,80.10
2019-03-30T03:44:45.661Z,79.80
2019-03-30T03:47:14.749Z,81.20
2019-03-30T03:49:43.849Z,81.30
2019-03-30T03:52:12.782Z,81.20
2019-03-30T03:54:42.869Z,82.10
2019-03-30T03:57:13.726Z,82.00
2019-03-30T03:59:43.264Z,82.90
2019-03-30T04:02:15.145Z,82.50
2019-03-30T04:04:47.649Z,82.80
2019-03-30T04:07:18.642Z,81.60
2019-03-30T04:09:49.544Z,83.10
2019-03-30T04:12:20.668Z,83.30
2019-03-30T04:14:54.483Z,83.20
2019-03-30T04:17:23.878Z,84.20
2019-03-30T04:19:52.979Z,84.40
2019-03-30T04:22:21.761Z,86.50
2019-03-30T04:24:50.587Z,86.70
2019-03-30T04:27:19.300Z,85.50
2019-03-30T04:29:48.300Z,86.80
2019-03-30T04:32:17.124Z,87.90
2019-03-30T04:34:45.934Z,88.60
2019-03-30T04:37:15.012Z,89.10
2019-03-30T04:39:43.837Z,88.30
2019-03-30T04:42:12.554Z,87.50
2019-03-30T04:44:41.374Z,87.20
2019-03-30T04:47:10.154Z,89.40
2019-03-30T04:49:39.286Z,88.80
2019-03-30T04:52:08.023Z,88.40
2019-03-30T04:54:37.150Z,88.10
2019-03-30T04:57:06.365Z,88.10
2019-03-30T04:59:35.151Z,89.70
2019-03-30T05:02:04.442Z,88.70
2019-03-30T05:04:33.270Z,90.10
2019-03-30T05:07:02.048Z,88.00
2019-03-30T05:09:31.232Z,89.20
2019-03-30T05:12:00.427Z,90.00
2019-03-30T05:14:29.528Z,89.40
2019-03-30T05:16:58.248Z,90.00
2019-03-30T05:19:27.406Z,89.30
2019-03-30T05:22:10.874Z,89.00
2019-03-30T05:24:26.962Z,88.50
2019-03-30T05:26:56.132Z,88.80
2019-03-30T05:29:24.839Z,88.70
2019-03-30T05:31:54.021Z,89.70
2019-03-30T05:34:22.774Z,89.40
2019-03-30T05:36:51.903Z,90.10
2019-03-30T05:39:20.998Z,90.30
2019-03-30T05:41:50.191Z,90.20
2019-03-30T05:44:18.909Z,89.40
2019-03-30T05:46:47.984Z,88.80
2019-03-30T05:49:17.176Z,88.80
2019-03-30T05:51:46.276Z,88.10
2019-03-30T05:54:15.072Z,88.20
2019-03-30T05:56:43.820Z,88.10
2019-03-30T05:59:12.641Z,88.70
2019-03-30T06:01:41.430Z,89.00
2019-03-30T06:04:10.518Z,89.10
2019-03-30T06:06:39.727Z,89.20
2019-03-30T06:09:08.504Z,88.90
2019-03-30T06:11:37.722Z,89.10
2019-03-30T06:14:06.508Z,89.30
2019-03-30T06:16:35.325Z,88.50
2019-03-30T06:19:04.491Z,88.40
2019-03-30T06:21:33.594Z,88.60
2019-03-30T06:24:02.785Z,87.60
2019-03-30T06:26:31.576Z,87.50
2019-03-30T06:29:00.367Z,87.20
2019-03-30T06:31:29.561Z,86.50
2019-03-30T06:33:58.772Z,86.40
2019-03-30T06:36:27.865Z,86.50
2019-03-30T06:38:57.068Z,85.90
2019-03-30T06:41:26.258Z,86.40
2019-03-30T06:43:55.351Z,85.00
2019-03-30T06:46:24.177Z,85.40
2019-03-30T06:48:53.338Z,85.30
2019-03-30T06:51:22.434Z,85.30
2019-03-30T06:53:51.633Z,85.00
2019-03-30T06:56:20.349Z,84.80
2019-03-30T06:58:49.523Z,84.90
2019-03-30T07:01:18.618Z,84.90
2019-03-30T07:03:47.393Z,84.90
2019-03-30T07:06:17.274Z,85.30
2019-03-30T07:08:48.065Z,85.60
2019-03-30T07:11:21.290Z,85.70
2019-03-30T07:13:50.689Z,86.30
2019-03-30T07:16:19.742Z,87.10
2019-03-30T07:18:51.302Z,87.90
2019-03-30T07:21:20.498Z,88.20
2019-03-30T07:23:49.295Z,88.30
2019-03-30T07:26:18.074Z,89.00
2019-03-30T07:28:47.195Z,88.90
2019-03-30T07:31:16.215Z,89.50
2019-03-30T07:33:44.993Z,90.00
2019-03-30T07:36:14.159Z,90.10
2019-03-30T07:38:43.260Z,90.30
2019-03-30T07:41:11.966Z,90.30
2019-03-30T07:43:41.146Z,90.80
2019-03-30T07:46:09.864Z,90.40
2019-03-30T07:48:38.569Z,90.90
2019-03-30T07:51:07.719Z,89.90
2019-03-30T07:53:44.349Z,90.80
2019-03-30T07:56:08.689Z,90.60
2019-03-30T07:58:37.738Z,90.30
2019-03-30T08:01:06.866Z,90.30
2019-03-30T08:03:35.582Z,90.30
2019-03-30T08:06:04.334Z,90.50
2019-03-30T08:08:33.125Z,90.40
2019-03-30T08:11:02.325Z,90.90
2019-03-30T08:13:31.423Z,90.50
2019-03-30T08:16:00.530Z,90.70
2019-03-30T08:18:29.732Z,90.90
2019-03-30T08:20:58.550Z,91.20
2019-03-30T08:23:39.859Z,90.00
2019-03-30T08:25:58.142Z,90.60
2019-03-30T08:28:27.437Z,90.00
2019-03-30T08:30:56.148Z,89.50
2019-03-30T08:33:25.343Z,89.70
2019-03-30T08:35:54.134Z,90.00
2019-03-30T08:38:22.950Z,88.40
2019-03-30T08:40:52.097Z,88.30
2019-03-30T08:43:20.878Z,88.50
2019-03-30T08:45:49.697Z,87.90
2019-03-30T08:48:19.360Z,86.60
2019-03-30T08:50:48.188Z,88.30
2019-03-30T08:53:17.278Z,87.50
2019-03-30T08:55:46.057Z,87.30
2019-03-30T08:58:15.070Z,87.80
2019-03-30T09:00:44.074Z,87.20
2019-03-30T09:03:12.951Z,86.80
2019-03-30T09:05:42.160Z,86.20
2019-03-30T09:08:11.354Z,86.80
2019-03-30T09:10:40.423Z,86.30
2019-03-30T09:13:09.241Z,87.20
2019-03-30T09:15:38.440Z,85.60
2019-03-30T09:18:07.535Z,85.70
2019-03-30T09:20:36.364Z,85.10
2019-03-30T09:23:05.527Z,85.10
2019-03-30T09:25:34.625Z,84.70
2019-03-30T09:28:03.475Z,85.00
2019-03-30T09:30:32.242Z,83.70
2019-03-30T09:33:01.063Z,83.70
2019-03-30T09:35:30.175Z,83.20
2019-03-30T09:37:58.907Z,83.40
2019-03-30T09:40:27.962Z,83.10
2019-03-30T09:42:57.057Z,80.80
2019-03-30T09:45:25.771Z,79.90
2019-03-30T09:47:54.585Z,81.10
2019-03-30T09:50:23.309Z,81.70
2019-03-30T09:52:52.010Z,80.20
2019-03-30T09:55:21.206Z,80.60
2019-03-30T09:57:50.313Z,79.50
2019-03-30T10:00:19.512Z,77.50
2019-03-30T10:02:48.333Z,70.00
2019-03-30T10:05:17.068Z,64.50
2019-03-30T10:07:46.088Z,64.70
2019-03-30T10:10:15.283Z,65.60
2019-03-30T10:12:43.988Z,62.80
2019-03-30T10:15:13.270Z,61.80
2019-03-30T10:17:42.055Z,62.40
2019-03-30T10:20:11.263Z,64.90
2019-03-30T10:22:42.182Z,65.20
2019-03-30T10:25:11.192Z,61.70
2019-03-30T10:27:40.283Z,65.90
2019-03-30T10:30:10.824Z,65.60
2019-03-30T10:32:39.922Z,62.20
2019-03-30T10:35:09.113Z,58.60
2019-03-30T10:37:38.315Z,56.70
2019-03-30T10:40:08.640Z,58.80
2019-03-30T10:42:37.746Z,57.60
2019-03-30T10:45:08.877Z,54.00
2019-03-30T10:47:37.603Z,54.10
2019-03-30T10:50:08.720Z,51.40
2019-03-30T10:52:37.988Z,51.60
2019-03-30T10:55:08.343Z,52.40
2019-03-30T10:57:37.435Z,52.60
2019-03-30T11:00:08.925Z,54.30
2019-03-30T11:02:39.111Z,54.50
2019-03-30T11:05:08.023Z,55.40
2019-03-30T11:07:37.197Z,55.30
2019-03-30T11:10:08.966Z,55.70
2019-03-30T11:12:38.075Z,55.70
2019-03-30T11:15:08.078Z,55.20
2019-03-30T11:17:37.175Z,53.80
2019-03-30T11:20:06.672Z,53.70
2019-03-30T11:22:35.775Z,55.40
2019-03-30T11:25:08.461Z,50.60
2019-03-30T11:27:36.728Z,50.40
2019-03-30T11:30:08.636Z,47.60
2019-03-30T11:32:37.702Z,48.40
2019-03-30T11:35:07.600Z,46.10
2019-03-30T11:37:36.705Z,44.40
2019-03-30T11:40:08.738Z,44.50
2019-03-30T11:42:37.856Z,45.00
2019-03-30T11:45:07.881Z,42.60
2019-03-30T11:47:36.976Z,38.70
2019-03-30T11:50:07.818Z,40.60
2019-03-30T11:52:37.005Z,38.90
2019-03-30T11:55:20.542Z,39.90
2019-03-30T11:57:37.694Z,38.60
2019-03-30T12:00:08.071Z,37.80
2019-03-30T12:02:37.191Z,41.30
2019-03-30T12:05:09.269Z,40.90
2019-03-30T12:07:38.003Z,39.80
2019-03-30T12:10:06.951Z,40.90
2019-03-30T12:12:37.339Z,40.60
2019-03-30T12:15:07.995Z,41.00
2019-03-30T12:17:37.100Z,40.20
2019-03-30T12:20:07.318Z,39.70
2019-03-30T12:22:36.407Z,36.20
2019-03-30T12:25:06.222Z,38.60
2019-03-30T12:27:34.928Z,39.60
2019-03-30T12:30:05.048Z,38.60
2019-03-30T12:32:34.139Z,38.90
2019-03-30T12:35:02.929Z,38.70
2019-03-30T12:37:31.863Z,37.80
2019-03-30T12:40:00.655Z,35.80
2019-03-30T12:42:29.799Z,36.20
2019-03-30T12:44:58.551Z,37.80
2019-03-30T12:47:27.582Z,36.30
2019-03-30T12:49:56.400Z,36.20
2019-03-30T12:52:26.588Z,38.10
2019-03-30T12:54:56.003Z,37.10
2019-03-30T12:57:25.206Z,38.30
2019-03-30T12:59:53.983Z,37.00
2019-03-30T13:02:22.750Z,38.10
2019-03-30T13:04:51.871Z,38.60
2019-03-30T13:07:20.655Z,38.50
2019-03-30T13:09:49.768Z,39.50
2019-03-30T13:12:18.613Z,39.10
2019-03-30T13:14:47.611Z,40.30
2019-03-30T13:17:16.748Z,41.40
2019-03-30T13:19:45.831Z,41.60
2019-03-30T13:22:14.590Z,40.50
2019-03-30T13:24:43.715Z,39.40
2019-03-30T13:27:13.075Z,39.90
2019-03-30T13:29:42.150Z,38.80
2019-03-30T13:32:10.897Z,39.00
2019-03-30T13:34:40.013Z,39.30
2019-03-30T13:37:16.688Z,36.60
2019-03-30T13:39:46.699Z,35.60
2019-03-30T13:42:15.686Z,35.20
2019-03-30T13:44:44.887Z,36.70
2019-03-30T13:47:13.608Z,37.50
2019-03-30T13:49:42.406Z,39.20
2019-03-30T13:52:11.572Z,39.50
2019-03-30T13:54:40.288Z,39.90
2019-03-30T13:57:09.457Z,42.00
2019-03-30T13:59:38.275Z,42.10
2019-03-30T14:02:07.438Z,42.00
2019-03-30T14:04:36.644Z,42.00
2019-03-30T14:07:05.738Z,41.70
2019-03-30T14:09:34.828Z,42.20
2019-03-30T14:12:03.660Z,43.50
2019-03-30T14:14:32.818Z,42.90
2019-03-30T14:17:01.600Z,43.70
2019-03-30T14:19:30.846Z,43.70
2019-03-30T14:21:59.931Z,45.50
2019-03-30T14:24:29.009Z,47.10
2019-03-30T14:26:57.838Z,47.80
2019-03-30T14:29:26.622Z,49.00
2019-03-30T14:31:55.783Z,50.20
2019-03-30T14:34:24.984Z,52.00
2019-03-30T14:36:53.772Z,51.70
2019-03-30T14:39:22.581Z,50.80
2019-03-30T14:41:51.410Z,49.30
2019-03-30T14:44:20.548Z,48.60
2019-03-30T14:46:50.352Z,46.40
2019-03-30T14:49:19.562Z,45.90
2019-03-30T14:51:49.179Z,44.40
2019-03-30T14:54:18.262Z,45.40
2019-03-30T14:56:47.027Z,45.40
2019-03-30T14:59:16.148Z,45.20
2019-03-30T15:01:44.953Z,46.90
2019-03-30T15:04:14.145Z,48.40
2019-03-30T15:06:43.247Z,47.80
2019-03-30T15:09:12.041Z,47.30
2019-03-30T15:11:40.870Z,46.00
2019-03-30T15:14:09.659Z,44.80
2019-03-30T15:16:38.803Z,46.00
2019-03-30T15:19:07.624Z,45.60
2019-03-30T15:21:36.792Z,45.90
2019-03-30T15:24:05.989Z,44.80
2019-03-30T15:26:35.190Z,44.70
2019-03-30T15:29:03.981Z,43.80
2019-03-30T15:31:32.772Z,41.50
2019-03-30T15:34:01.586Z,41.80
2019-03-30T15:36:30.752Z,41.10
2019-03-30T15:38:59.848Z,41.20
2019-03-30T15:41:29.050Z,42.60
2019-03-30T15:43:58.153Z,44.20
2019-03-30T15:46:27.252Z,45.00
2019-03-30T15:48:56.442Z,46.40
2019-03-30T15:51:25.306Z,46.60
2019-03-30T15:53:54.037Z,45.70
2019-03-30T15:56:23.227Z,43.90
2019-03-30T15:58:52.431Z,44.50
2019-03-30T16:01:21.146Z,45.90
2019-03-30T16:03:50.194Z,45.80
2019-03-30T16:06:18.917Z,45.70
2019-03-30T16:08:47.709Z,45.70
2019-03-30T16:11:16.876Z,45.50
2019-03-30T16:13:45.967Z,46.00
2019-03-30T16:16:14.828Z,46.80
2019-03-30T16:18:43.960Z,47.90
2019-03-30T16:21:13.255Z,46.90
2019-03-30T16:23:42.368Z,47.30
2019-03-30T16:26:11.127Z,47.20
2019-03-30T16:28:40.145Z,47.90
2019-03-30T16:31:09.539Z,49.10
2019-03-30T16:33:38.384Z,49.90
2019-03-30T16:36:07.232Z,49.00
2019-03-30T16:38:36.321Z,48.70
2019-03-30T16:41:05.160Z,48.80
2019-03-30T16:43:33.877Z,47.80
2019-03-30T16:46:02.659Z,48.60
2019-03-30T16:48:31.788Z,49.40
2019-03-30T16:51:00.897Z,49.50
2019-03-30T16:53:29.990Z,49.10
2019-03-30T16:55:59.180Z,49.50
2019-03-30T16:58:28.281Z,50.10
2019-03-30T17:00:57.375Z,50.00
2019-03-30T17:03:26.206Z,49.70
2019-03-30T17:05:55.369Z,49.70
2019-03-30T17:08:24.455Z,48.80
2019-03-30T17:10:53.212Z,48.70
2019-03-30T17:13:22.359Z,48.20
2019-03-30T17:15:51.185Z,49.00
2019-03-30T17:18:20.243Z,48.90
2019-03-30T17:20:49.534Z,49.20
2019-03-30T17:23:18.729Z,49.40
2019-03-30T17:25:48.007Z,49.40
2019-03-30T17:28:17.026Z,49.90
2019-03-30T17:30:45.791Z,50.50
2019-03-30T17:33:14.911Z,50.80
2019-03-30T17:35:43.722Z,50.60
2019-03-30T17:38:12.908Z,50.50
2019-03-30T17:40:42.002Z,51.10
2019-03-30T17:43:11.088Z,51.50
2019-03-30T17:45:39.915Z,50.80
2019-03-30T17:48:08.979Z,51.30
2019-03-30T17:50:38.212Z,52.10
2019-03-30T17:53:06.924Z,51.90
2019-03-30T17:55:35.701Z,52.00
2019-03-30T17:58:12.736Z,51.70
2019-03-30T18:00:35.278Z,51.10
2019-03-30T18:03:04.121Z,52.60
2019-03-30T18:05:33.540Z,52.60
2019-03-30T18:08:02.778Z,53.30
2019-03-30T18:10:31.975Z,52.70
2019-03-30T18:13:00.753Z,53.10
2019-03-30T18:15:35.959Z,53.60
2019-03-30T18:18:04.670Z,54.60
2019-03-30T18:20:43.852Z,54.10
2019-03-30T18:23:12.628Z,54.10
2019-03-30T18:28:26.568Z,54.70
2019-03-30T18:30:46.903Z,55.20
2019-03-30T18:33:15.616Z,55.40
2019-03-30T18:35:45.067Z,55.70
2019-03-30T18:38:14.264Z,55.70
2019-03-30T18:40:43.373Z,55.90
2019-03-30T18:43:12.155Z,55.90
2019-03-30T18:45:41.245Z,57.00
2019-03-30T18:48:14.740Z,56.80
2019-03-30T18:50:44.453Z,56.20
2019-03-30T18:53:14.262Z,56.60
2019-03-30T18:55:42.975Z,56.70
2019-03-30T18:58:11.712Z,55.80
2019-03-30T19:00:40.427Z,56.70
2019-03-30T19:03:09.630Z,57.20
2019-03-30T19:05:38.450Z,58.20
2019-03-30T19:08:07.624Z,58.00
2019-03-30T19:10:36.923Z,57.10
2019-03-30T19:13:06.112Z,58.10
2019-03-30T19:15:35.211Z,58.20
2019-03-30T19:18:04.520Z,58.90
2019-03-30T19:20:33.297Z,60.10
2019-03-30T19:23:02.083Z,60.80
2019-03-30T19:25:31.296Z,59.40
2019-03-30T19:28:00.219Z,61.40
2019-03-30T19:30:29.044Z,59.70
2019-03-30T19:32:58.179Z,61.80
2019-03-30T19:35:27.273Z,61.50
2019-03-30T19:37:56.472Z,61.20
2019-03-30T19:40:25.261Z,62.10
2019-03-30T19:42:54.351Z,62.80
2019-03-30T19:45:23.500Z,62.70
2019-03-30T19:47:52.221Z,63.60
2019-03-30T19:50:21.018Z,63.20
2019-03-30T19:52:49.859Z,63.60
2019-03-30T19:55:19.017Z,62.90
2019-03-30T19:57:48.110Z,64.70
2019-03-30T20:00:17.612Z,62.70
2019-03-30T20:02:46.712Z,65.40
2019-03-30T20:05:15.552Z,65.80
2019-03-30T20:07:44.706Z,64.70
2019-03-30T20:10:13.907Z,67.00
2019-03-30T20:12:42.704Z,68.40
2019-03-30T20:15:11.902Z,68.10
2019-03-30T20:17:41.102Z,68.40
2019-03-30T20:20:10.618Z,67.50
2019-03-30T20:22:39.458Z,65.80
2019-03-30T20:25:09.911Z,69.30
2019-03-30T20:27:38.768Z,69.40
2019-03-30T20:30:09.485Z,69.20
2019-03-30T20:32:38.644Z,68.70
2019-03-30T20:35:08.931Z,69.90
2019-03-30T20:37:47.392Z,68.50
2019-03-30T20:40:16.474Z,67.50
2019-03-30T20:42:57.454Z,66.90
2019-03-30T20:45:26.542Z,66.90
2019-03-30T20:50:35.846Z,64.70
2019-03-30T20:53:05.007Z,64.30
2019-03-30T20:55:34.164Z,63.70
2019-03-30T20:58:02.919Z,62.90
2019-03-30T21:00:32.180Z,64.00
2019-03-30T21:03:01.168Z,64.10
2019-03-30T21:05:30.279Z,64.40
2019-03-30T21:07:59.066Z,64.40
2019-03-30T21:10:27.842Z,64.10
2019-03-30T21:12:56.955Z,64.30
2019-03-30T21:15:25.746Z,64.70
2019-03-30T21:17:54.844Z,64.70
2019-03-30T21:20:23.943Z,64.60
2019-03-30T21:22:53.136Z,63.10
2019-03-30T21:25:21.852Z,63.60
2019-03-30T21:27:50.640Z,64.30
2019-03-30T21:30:19.715Z,63.80
2019-03-30T21:32:48.421Z,64.00
2019-03-30T21:35:17.506Z,63.40
2019-03-30T21:37:46.591Z,65.00
2019-03-30T21:40:15.679Z,67.00
2019-03-30T21:42:44.510Z,66.80
2019-03-30T21:45:13.678Z,66.50
2019-03-30T21:47:42.766Z,68.60
2019-03-30T21:52:46.332Z,68.60
2019-03-30T21:55:15.486Z,68.60
2019-03-30T21:57:44.275Z,69.40
2019-03-30T22:00:14.918Z,68.90
2019-03-30T22:02:43.863Z,66.80
2019-03-30T22:05:13.016Z,68.50
2019-03-30T22:07:42.206Z,70.80
2019-03-30T22:10:16.718Z,70.90
2019-03-30T22:12:45.823Z,70.90
2019-03-30T22:15:17.095Z,69.50
2019-03-30T22:17:45.850Z,71.40
2019-03-30T22:20:14.634Z,69.80
2019-03-30T22:22:43.460Z,73.40
2019-03-30T22:25:12.240Z,71.20
2019-03-30T22:27:41.315Z,73.30
2019-03-30T22:30:24.113Z,73.30
2019-03-30T22:32:42.688Z,73.10
2019-03-30T22:35:12.815Z,73.80
2019-03-30T22:37:41.905Z,72.90
2019-03-30T22:40:11.211Z,74.30
2019-03-30T22:42:40.299Z,73.70
2019-03-30T22:45:09.576Z,72.10
2019-03-30T22:47:38.703Z,74.30
2019-03-30T22:50:08.727Z,72.00
2019-03-30T22:52:37.484Z,74.00
2019-03-30T22:55:09.469Z,74.30
2019-03-30T22:57:44.919Z,72.50
2019-03-30T23:00:22.146Z,72.70
2019-03-30T23:02:57.028Z,74.40
2019-03-30T23:05:26.135Z,72.40
2019-03-30T23:08:07.932Z,73.60
2019-03-30T23:10:36.646Z,75.00
2019-03-30T23:15:45.855Z,75.40
2019-03-30T23:18:29.301Z,75.30
2019-03-30T23:20:58.505Z,75.10
2019-03-30T23:23:33.845Z,75.50
2019-03-30T23:26:02.941Z,75.60
2019-03-30T23:28:32.040Z,76.00
2019-03-30T23:31:01.664Z,73.90
2019-03-30T23:33:30.838Z,76.20
2019-03-30T23:35:59.934Z,76.70
2019-03-30T23:38:28.757Z,75.60
2019-03-30T23:40:57.921Z,76.00
2019-03-30T23:43:27.138Z,76.40
2019-03-30T23:45:56.213Z,76.30
2019-03-30T23:48:25.043Z,76.90
2019-03-30T23:50:54.216Z,76.30
2019-03-30T23:53:22.991Z,76.60
2019-03-30T23:55:51.729Z,76.70
2019-03-30T23:58:20.912Z,75.40
